Roberts, Illinois
Current Conditions -  °F | °C
As of 7:10 AM on Friday 24 Oct 2014 (Local Time) from KTIP Reporting Station
Haze Haze  
Wind Chill: 46°   Ceiling: Unl
Heat Index: 46°   Visibility: 3mi
Dew Point: 45°   Wind: 3mph
Humidity: 96%   Direction: 140°SE
Pressure: 30.08"   Gusts: NA
Location:  40.61°N, 88.18°W
Report Text: KTIP 241210Z AUTO 14003KT 3SM BR CLR 08/07 A3008 RMK AO2 T00800074
Loading
Personal Weather Stations






























Interactive Weather Map
Tropical Storm Tracking
New forecast layout! Learn more

10-Day Weather Forecast

Advertisements
Track Severe Weather on mobile